createdAt,value
2019-02-05T00:00:07.816Z,19.80
2019-02-05T00:01:07.608Z,19.80
2019-02-05T00:02:07.496Z,18.60
2019-02-05T00:03:07.403Z,19.50
2019-02-05T00:04:07.286Z,18.40
2019-02-05T00:05:07.175Z,20.10
2019-02-05T00:06:07.207Z,19.20
2019-02-05T00:07:06.965Z,18.70
2019-02-05T00:08:06.876Z,18.50
2019-02-05T00:09:06.750Z,18.10
2019-02-05T00:10:06.646Z,19.00
2019-02-05T00:11:06.540Z,18.40
2019-02-05T00:12:06.434Z,19.00
2019-02-05T00:13:06.347Z,18.30
2019-02-05T00:14:06.221Z,18.30
2019-02-05T00:15:06.117Z,18.80
2019-02-05T00:16:06.010Z,17.60
2019-02-05T00:17:05.903Z,17.60
2019-02-05T00:18:05.814Z,16.60
2019-02-05T00:19:05.690Z,16.10
2019-02-05T00:20:05.599Z,15.60
2019-02-05T00:21:05.478Z,15.80
2019-02-05T00:22:05.376Z,15.20
2019-02-05T00:23:05.284Z,15.50
2019-02-05T00:24:05.161Z,16.00
2019-02-05T00:25:05.055Z,16.50
2019-02-05T00:26:06.518Z,15.70
2019-02-05T00:27:04.842Z,15.30
2019-02-05T00:28:04.753Z,14.70
2019-02-05T00:29:04.637Z,15.80
2019-02-05T00:30:04.527Z,15.40
2019-02-05T00:31:04.419Z,15.00
2019-02-05T00:32:04.316Z,15.50
2019-02-05T00:33:04.223Z,15.40
2019-02-05T00:34:04.102Z,14.40
2019-02-05T00:35:03.994Z,14.30
2019-02-05T00:36:03.893Z,14.70
2019-02-05T00:37:03.782Z,15.10
2019-02-05T00:38:03.692Z,14.60
2019-02-05T00:39:03.571Z,14.50
2019-02-05T00:40:03.471Z,14.20
2019-02-05T00:41:03.360Z,14.40
2019-02-05T00:42:03.255Z,13.40
2019-02-05T00:43:03.165Z,13.50
2019-02-05T00:44:03.044Z,12.90
2019-02-05T00:45:02.935Z,13.50
2019-02-05T00:46:02.829Z,14.20
2019-02-05T00:47:02.722Z,13.00
2019-02-05T00:48:02.638Z,12.70
2019-02-05T00:49:02.513Z,12.60
2019-02-05T00:50:02.408Z,12.90
2019-02-05T00:51:02.302Z,12.10
2019-02-05T00:52:02.208Z,12.60
2019-02-05T00:53:02.108Z,13.50
2019-02-05T00:54:01.982Z,12.90
2019-02-05T00:55:01.882Z,11.20
2019-02-05T00:56:01.773Z,13.10
2019-02-05T00:57:01.665Z,11.60
2019-02-05T00:58:01.579Z,12.10
2019-02-05T00:59:01.454Z,12.50
2019-02-05T01:00:01.349Z,12.40
2019-02-05T01:01:01.240Z,13.10
2019-02-05T01:02:01.135Z,12.70
2019-02-05T01:03:01.047Z,13.70
2019-02-05T01:04:00.925Z,12.40
2019-02-05T01:05:00.822Z,12.70
2019-02-05T01:06:00.711Z,14.00
2019-02-05T01:07:00.608Z,14.00
2019-02-05T01:08:00.516Z,13.90
2019-02-05T01:09:00.395Z,13.40
2019-02-05T01:10:00.334Z,13.30
2019-02-05T01:11:00.183Z,12.50
2019-02-05T01:12:00.079Z,12.50
2019-02-05T01:12:59.988Z,12.10
2019-02-05T01:13:59.868Z,12.80
2019-02-05T01:14:59.762Z,11.90
2019-02-05T01:15:59.655Z,12.50
2019-02-05T01:16:59.546Z,12.20
2019-02-05T01:17:59.520Z,12.70
2019-02-05T01:18:59.335Z,12.30
2019-02-05T01:19:59.230Z,12.30
2019-02-05T01:20:59.122Z,12.30
2019-02-05T01:21:59.018Z,11.80
2019-02-05T01:22:58.915Z,12.20
2019-02-05T01:23:58.920Z,11.70
2019-02-05T01:24:58.703Z,12.00
2019-02-05T01:25:58.596Z,11.70
2019-02-05T01:26:58.489Z,12.20
2019-02-05T01:27:58.387Z,11.80
2019-02-05T01:28:58.295Z,12.90
2019-02-05T01:29:58.171Z,12.10
2019-02-05T01:30:58.064Z,11.90
2019-02-05T01:31:57.962Z,12.60
2019-02-05T01:32:57.856Z,12.40
2019-02-05T01:33:57.766Z,12.30
2019-02-05T01:34:57.644Z,12.40
2019-02-05T01:35:57.535Z,12.60
2019-02-05T01:36:57.429Z,12.40
2019-02-05T01:37:57.433Z,12.60
2019-02-05T01:38:57.235Z,13.00
2019-02-05T01:39:57.110Z,12.20
2019-02-05T01:40:57.004Z,12.30
2019-02-05T01:41:56.913Z,12.60
2019-02-05T01:42:56.798Z,12.00
2019-02-05T01:43:56.703Z,13.10
2019-02-05T01:44:56.682Z,12.20
2019-02-05T01:45:56.476Z,13.00
2019-02-05T01:46:56.371Z,13.30
2019-02-05T01:47:56.292Z,13.00
2019-02-05T01:48:56.182Z,12.70
2019-02-05T01:49:56.054Z,12.50
2019-02-05T01:50:55.962Z,12.00
2019-02-05T01:51:55.945Z,13.20
2019-02-05T01:52:55.860Z,13.00
2019-02-05T01:53:55.651Z,12.80
2019-02-05T01:54:55.522Z,13.10
2019-02-05T01:55:55.415Z,13.60
2019-02-05T01:56:55.308Z,12.90
2019-02-05T01:57:55.202Z,13.20
2019-02-05T01:58:55.236Z,13.20
2019-02-05T01:59:54.994Z,14.00
2019-02-05T02:00:54.889Z,13.30
2019-02-05T02:01:54.779Z,13.60
2019-02-05T02:02:54.674Z,13.60
2019-02-05T02:03:54.582Z,13.00
2019-02-05T02:04:54.463Z,14.40
2019-02-05T02:05:54.452Z,13.90
2019-02-05T02:06:54.248Z,14.00
2019-02-05T02:07:54.143Z,13.50
2019-02-05T02:08:54.052Z,12.90
2019-02-05T02:09:53.931Z,13.90
2019-02-05T02:10:53.824Z,12.70
2019-02-05T02:11:53.713Z,14.40
2019-02-05T02:12:53.712Z,14.20
2019-02-05T02:13:53.519Z,14.90
2019-02-05T02:14:53.398Z,15.10
2019-02-05T02:15:53.291Z,16.00
2019-02-05T02:16:53.198Z,15.40
2019-02-05T02:17:53.078Z,16.20
2019-02-05T02:18:52.989Z,17.30
2019-02-05T02:19:52.970Z,17.10
2019-02-05T02:20:52.759Z,17.00
2019-02-05T02:21:52.653Z,17.50
2019-02-05T02:22:52.549Z,17.60
2019-02-05T02:23:52.459Z,17.60
2019-02-05T02:24:52.333Z,16.90
2019-02-05T02:25:52.235Z,17.00
2019-02-05T02:26:52.507Z,16.60
2019-02-05T02:27:52.014Z,16.40
2019-02-05T02:28:51.926Z,17.30
2019-02-05T02:29:51.802Z,16.20
2019-02-05T02:30:51.696Z,16.50
2019-02-05T02:31:51.604Z,15.80
2019-02-05T02:32:51.482Z,15.40
2019-02-05T02:33:51.502Z,15.10
2019-02-05T02:34:51.269Z,16.00
2019-02-05T02:35:51.163Z,15.30
2019-02-05T02:36:51.060Z,15.90
2019-02-05T02:37:50.953Z,16.30
2019-02-05T02:38:50.861Z,16.40
2019-02-05T02:39:50.739Z,16.70
2019-02-05T02:40:50.733Z,17.40
2019-02-05T02:41:50.531Z,15.30
2019-02-05T02:42:50.419Z,15.50
2019-02-05T02:43:50.331Z,15.40
2019-02-05T02:44:50.207Z,15.90
2019-02-05T02:45:50.100Z,15.60
2019-02-05T02:46:50.119Z,15.60
2019-02-05T02:47:49.885Z,14.50
2019-02-05T02:48:49.794Z,15.50
2019-02-05T02:49:49.671Z,15.30
2019-02-05T02:50:49.565Z,15.00
2019-02-05T02:51:49.461Z,14.60
2019-02-05T02:52:49.359Z,14.70
2019-02-05T02:53:49.274Z,15.40
2019-02-05T02:54:49.142Z,14.80
2019-02-05T02:55:49.035Z,14.90
2019-02-05T02:56:48.927Z,15.90
2019-02-05T02:57:48.823Z,15.10
2019-02-05T02:58:48.720Z,15.00
2019-02-05T02:59:48.624Z,14.60
2019-02-05T03:00:48.604Z,14.60
2019-02-05T03:01:48.419Z,15.30
2019-02-05T03:02:48.289Z,15.40
2019-02-05T03:03:48.201Z,16.10
2019-02-05T03:04:48.075Z,16.90
2019-02-05T03:05:47.970Z,17.60
2019-02-05T03:06:47.864Z,16.70
2019-02-05T03:07:47.757Z,17.20
2019-02-05T03:08:47.652Z,16.60
2019-02-05T03:09:47.563Z,18.00
2019-02-05T03:10:47.441Z,17.90
2019-02-05T03:11:47.331Z,18.30
2019-02-05T03:12:47.229Z,19.30
2019-02-05T03:13:47.122Z,19.00
2019-02-05T03:14:47.033Z,19.30
2019-02-05T03:15:46.905Z,22.10
2019-02-05T03:16:46.799Z,21.90
2019-02-05T03:17:46.696Z,20.40
2019-02-05T03:18:46.587Z,19.20
2019-02-05T03:19:46.496Z,21.00
2019-02-05T03:20:46.381Z,18.00
2019-02-05T03:21:46.267Z,20.70
2019-02-05T03:22:46.159Z,23.10
2019-02-05T03:23:46.053Z,24.30
2019-02-05T03:24:45.960Z,21.70
2019-02-05T03:25:45.838Z,23.10
2019-02-05T03:26:45.732Z,23.00
2019-02-05T03:27:45.631Z,25.40
2019-02-05T03:28:45.518Z,23.70
2019-02-05T03:29:45.429Z,22.60
2019-02-05T03:30:45.307Z,23.30
2019-02-05T03:31:45.203Z,26.70
2019-02-05T03:32:45.093Z,24.00
2019-02-05T03:33:44.988Z,24.50
2019-02-05T03:34:44.896Z,25.60
2019-02-05T03:35:44.772Z,25.80
2019-02-05T03:36:44.668Z,27.10
2019-02-05T03:37:44.562Z,25.60
2019-02-05T03:38:44.455Z,25.50
2019-02-05T03:39:44.361Z,26.00
2019-02-05T03:40:44.238Z,23.60
2019-02-05T03:41:44.132Z,24.00
2019-02-05T03:42:44.024Z,23.60
2019-02-05T03:43:43.921Z,25.00
2019-02-05T03:44:43.833Z,23.40
2019-02-05T03:45:43.705Z,23.60
2019-02-05T03:46:43.597Z,24.70
2019-02-05T03:47:43.492Z,23.00
2019-02-05T03:48:43.385Z,23.50
2019-02-05T03:49:43.296Z,24.70
2019-02-05T03:50:43.171Z,25.60
2019-02-05T03:51:43.066Z,28.00
2019-02-05T03:52:42.958Z,31.00
2019-02-05T03:53:42.852Z,26.50
2019-02-05T03:54:42.760Z,31.60
2019-02-05T03:55:42.638Z,32.70
2019-02-05T03:56:42.529Z,29.30
2019-02-05T03:57:42.429Z,31.00
2019-02-05T03:58:42.316Z,32.30
2019-02-05T03:59:42.228Z,30.60
2019-02-05T04:00:42.104Z,30.10
2019-02-05T04:01:42.000Z,28.20
2019-02-05T04:02:41.891Z,29.80
2019-02-05T04:03:41.782Z,32.90
2019-02-05T04:04:41.726Z,32.50
2019-02-05T04:05:41.570Z,33.00
2019-02-05T04:06:41.464Z,30.40
2019-02-05T04:07:41.359Z,33.10
2019-02-05T04:08:41.248Z,36.00
2019-02-05T04:09:41.157Z,37.90
2019-02-05T04:10:41.141Z,35.40
2019-02-05T04:11:40.932Z,37.50
2019-02-05T04:12:40.826Z,38.50
2019-02-05T04:13:40.715Z,34.20
2019-02-05T04:14:40.625Z,38.30
2019-02-05T04:15:40.506Z,35.90
2019-02-05T04:16:40.394Z,36.10
2019-02-05T04:17:40.288Z,31.70
2019-02-05T04:18:40.182Z,29.40
2019-02-05T04:19:40.093Z,27.50
2019-02-05T04:20:39.967Z,32.00
2019-02-05T04:21:39.863Z,32.40
2019-02-05T04:22:39.753Z,31.10
2019-02-05T04:23:39.647Z,29.90
2019-02-05T04:24:39.662Z,30.40
2019-02-05T04:25:39.440Z,30.80
2019-02-05T04:26:39.325Z,28.10
2019-02-05T04:27:44.116Z,29.30
2019-02-05T04:28:39.110Z,29.30
2019-02-05T04:29:39.019Z,31.00
2019-02-05T04:30:38.896Z,30.10
2019-02-05T04:31:38.901Z,27.60
2019-02-05T04:32:38.685Z,29.10
2019-02-05T04:33:38.578Z,26.10
2019-02-05T04:34:38.486Z,28.70
2019-02-05T04:35:38.362Z,28.70
2019-02-05T04:36:38.264Z,29.00
2019-02-05T04:37:38.148Z,26.90
2019-02-05T04:38:38.154Z,26.90
2019-02-05T04:39:37.949Z,26.10
2019-02-05T04:40:37.827Z,28.80
2019-02-05T04:41:37.723Z,28.10
2019-02-05T04:42:37.617Z,26.60
2019-02-05T04:43:37.506Z,24.40
2019-02-05T04:44:37.415Z,23.10
2019-02-05T04:45:37.399Z,23.50
2019-02-05T04:46:37.187Z,25.00
2019-02-05T04:47:37.079Z,23.70
2019-02-05T04:48:36.973Z,23.50
2019-02-05T04:49:36.879Z,22.80
2019-02-05T04:50:36.759Z,20.50
2019-02-05T04:51:36.653Z,25.20
2019-02-05T04:52:36.639Z,23.50
2019-02-05T04:53:36.435Z,22.40
2019-02-05T04:54:36.327Z,23.10
2019-02-05T04:55:36.236Z,22.50
2019-02-05T04:56:36.112Z,22.40
2019-02-05T04:57:36.003Z,22.20
2019-02-05T04:58:35.903Z,23.50
2019-02-05T04:59:35.900Z,22.30
2019-02-05T05:00:35.708Z,23.20
2019-02-05T05:01:35.577Z,24.60
2019-02-05T05:02:35.471Z,24.20
2019-02-05T05:03:35.366Z,21.90
2019-02-05T05:04:35.261Z,23.30
2019-02-05T05:05:35.165Z,20.90
2019-02-05T05:06:35.148Z,23.60
2019-02-05T05:07:34.935Z,24.00
2019-02-05T05:08:34.839Z,22.60
2019-02-05T05:09:34.724Z,21.20
2019-02-05T05:10:34.639Z,24.20
2019-02-05T05:11:34.513Z,23.80
2019-02-05T05:12:34.402Z,25.20
2019-02-05T05:13:34.390Z,27.50
2019-02-05T05:14:34.186Z,27.30
2019-02-05T05:15:34.102Z,27.40
2019-02-05T05:16:33.971Z,24.50
2019-02-05T05:17:33.867Z,26.00
2019-02-05T05:18:33.760Z,26.90
2019-02-05T05:19:33.650Z,25.70
2019-02-05T05:20:33.559Z,25.00
2019-02-05T05:21:33.436Z,25.20
2019-02-05T05:22:33.330Z,24.40
2019-02-05T05:23:33.223Z,25.90
2019-02-05T05:24:33.114Z,25.50
2019-02-05T05:25:33.026Z,25.10
2019-02-05T05:26:32.906Z,24.30
2019-02-05T05:27:33.016Z,25.10
2019-02-05T05:28:32.689Z,24.50
2019-02-05T05:29:33.196Z,24.80
2019-02-05T05:30:32.491Z,24.50
2019-02-05T05:31:32.370Z,23.90
2019-02-05T05:32:32.263Z,24.20
2019-02-05T05:33:32.154Z,26.00
2019-02-05T05:34:32.048Z,25.10
2019-02-05T05:35:41.712Z,25.20
2019-02-05T05:36:31.834Z,27.90
2019-02-05T05:37:31.727Z,28.00
2019-02-05T05:38:31.620Z,25.20
2019-02-05T05:39:31.512Z,22.00
2019-02-05T05:40:31.420Z,24.90
2019-02-05T05:41:31.297Z,24.60
2019-02-05T05:42:31.196Z,21.00
2019-02-05T05:43:31.086Z,22.00
2019-02-05T05:44:30.977Z,25.70
2019-02-05T05:45:30.888Z,23.60
2019-02-05T05:46:30.767Z,24.90
2019-02-05T05:47:30.657Z,24.30
2019-02-05T05:48:30.553Z,27.70
2019-02-05T05:49:30.442Z,26.40
2019-02-05T05:50:30.355Z,28.00
2019-02-05T05:51:30.229Z,27.90
2019-02-05T05:52:30.123Z,28.10
2019-02-05T05:53:30.016Z,29.10
2019-02-05T05:54:29.908Z,29.10
2019-02-05T05:55:29.818Z,27.10
2019-02-05T05:56:29.693Z,28.80
2019-02-05T05:57:29.587Z,27.40
2019-02-05T05:58:29.477Z,27.20
2019-02-05T05:59:29.374Z,28.40
2019-02-05T06:00:29.284Z,30.40
2019-02-05T06:01:29.157Z,31.80
2019-02-05T06:02:29.053Z,29.50
2019-02-05T06:03:28.948Z,29.70
2019-02-05T06:04:28.842Z,30.00
2019-02-05T06:05:28.750Z,28.00
2019-02-05T06:06:28.625Z,29.10
2019-02-05T06:07:28.518Z,31.00
2019-02-05T06:08:28.410Z,30.10
2019-02-05T06:09:28.302Z,27.60
2019-02-05T06:10:28.217Z,29.20
2019-02-05T06:11:28.089Z,29.40
2019-02-05T06:12:27.982Z,29.30
2019-02-05T06:13:27.876Z,26.10
2019-02-05T06:14:27.768Z,25.80
2019-02-05T06:15:27.677Z,26.90
2019-02-05T06:16:27.556Z,26.40
2019-02-05T06:17:27.532Z,27.70
2019-02-05T06:18:27.345Z,26.10
2019-02-05T06:19:27.313Z,26.00
2019-02-05T06:20:27.145Z,26.10
2019-02-05T06:21:27.025Z,26.50
2019-02-05T06:22:26.916Z,28.10
2019-02-05T06:23:26.809Z,25.10
2019-02-05T06:24:26.701Z,28.50
2019-02-05T06:25:26.611Z,26.70
2019-02-05T06:26:26.487Z,27.90
2019-02-05T06:27:26.386Z,27.30
2019-02-05T06:28:34.331Z,27.10
2019-02-05T06:29:26.169Z,25.50
2019-02-05T06:30:26.081Z,28.20
2019-02-05T06:31:25.956Z,28.00
2019-02-05T06:32:25.853Z,29.00
2019-02-05T06:33:25.741Z,27.30
2019-02-05T06:34:25.636Z,27.00
2019-02-05T06:35:25.529Z,27.40
2019-02-05T06:36:25.437Z,26.90
2019-02-05T06:37:25.316Z,25.60
2019-02-05T06:38:25.213Z,27.70
2019-02-05T06:39:25.103Z,25.20
2019-02-05T06:40:24.998Z,27.10
2019-02-05T06:41:24.906Z,26.40
2019-02-05T06:42:24.783Z,26.70
2019-02-05T06:43:24.677Z,25.90
2019-02-05T06:44:24.574Z,26.70
2019-02-05T06:45:24.569Z,27.30
2019-02-05T06:46:24.374Z,26.50
2019-02-05T06:47:24.253Z,26.70
2019-02-05T06:48:24.159Z,25.00
2019-02-05T06:49:24.038Z,25.90
2019-02-05T06:50:23.934Z,25.70
2019-02-05T06:51:23.952Z,25.70
2019-02-05T06:52:23.719Z,25.60
2019-02-05T06:53:23.613Z,27.60
2019-02-05T06:54:23.508Z,26.60
2019-02-05T06:55:23.402Z,25.30
2019-02-05T06:56:23.317Z,25.50
2019-02-05T06:57:23.193Z,25.60
2019-02-05T06:58:23.205Z,27.20
2019-02-05T06:59:22.976Z,26.20
2019-02-05T07:00:22.877Z,25.90
2019-02-05T07:01:22.781Z,25.10
2019-02-05T07:02:22.657Z,25.60
2019-02-05T07:03:22.552Z,25.30
2019-02-05T07:04:22.451Z,25.10
2019-02-05T07:05:22.443Z,25.30
2019-02-05T07:06:22.252Z,24.10
2019-02-05T07:07:22.127Z,24.70
2019-02-05T07:08:22.019Z,25.10
2019-02-05T07:09:21.915Z,25.70
2019-02-05T07:10:21.808Z,26.80
2019-02-05T07:11:21.719Z,26.00
2019-02-05T07:12:21.701Z,25.50
2019-02-05T07:13:21.493Z,25.30
2019-02-05T07:14:21.385Z,25.30
2019-02-05T07:15:21.278Z,26.30
2019-02-05T07:16:21.188Z,26.60
2019-02-05T07:17:21.065Z,27.30
2019-02-05T07:18:20.958Z,27.00
2019-02-05T07:19:20.959Z,27.20
2019-02-05T07:20:20.746Z,26.50
2019-02-05T07:21:20.657Z,28.10
2019-02-05T07:22:20.536Z,27.80
2019-02-05T07:23:20.431Z,28.60
2019-02-05T07:24:20.323Z,29.50
2019-02-05T07:25:20.217Z,28.60
2019-02-05T07:26:20.247Z,30.30
2019-02-05T07:27:20.003Z,28.10
2019-02-05T07:28:19.898Z,30.60
2019-02-05T07:29:19.790Z,30.80
2019-02-05T07:30:19.718Z,29.50
2019-02-05T07:31:19.598Z,28.20
2019-02-05T07:32:19.474Z,30.80
2019-02-05T07:33:19.473Z,30.20
2019-02-05T07:34:21.325Z,30.30
2019-02-05T07:35:19.159Z,29.50
2019-02-05T07:36:19.069Z,29.00
2019-02-05T07:37:18.943Z,30.00
2019-02-05T07:38:18.837Z,25.90
2019-02-05T07:39:18.733Z,24.60
2019-02-05T07:40:18.732Z,25.30
2019-02-05T07:41:18.535Z,23.50
2019-02-05T07:42:18.412Z,25.10
2019-02-05T07:43:18.310Z,24.00
2019-02-05T07:44:18.230Z,24.00
2019-02-05T07:45:18.099Z,22.90
2019-02-05T07:46:18.011Z,24.30
2019-02-05T07:47:17.987Z,22.40
2019-02-05T07:48:17.781Z,25.10
2019-02-05T07:49:17.679Z,23.40
2019-02-05T07:50:17.574Z,25.20
2019-02-05T07:51:17.486Z,25.00
2019-02-05T07:52:17.362Z,27.80
2019-02-05T07:53:17.275Z,25.40
2019-02-05T07:54:17.265Z,26.40
2019-02-05T07:55:17.050Z,25.60
2019-02-05T07:56:16.963Z,26.40
2019-02-05T07:57:16.839Z,23.90
2019-02-05T07:58:16.735Z,24.00
2019-02-05T07:59:16.629Z,23.20
2019-02-05T08:00:16.524Z,24.20
2019-02-05T08:01:17.718Z,26.20
2019-02-05T08:02:16.313Z,24.20
2019-02-05T08:03:16.213Z,25.90
2019-02-05T08:04:16.106Z,27.30
2019-02-05T08:05:16.000Z,24.10
2019-02-05T08:06:15.913Z,27.40
2019-02-05T08:07:15.895Z,25.30
2019-02-05T08:08:15.681Z,24.80
2019-02-05T08:09:15.585Z,27.60
2019-02-05T08:10:15.487Z,26.20
2019-02-05T08:11:15.370Z,23.50
2019-02-05T08:12:15.307Z,25.40
2019-02-05T08:13:15.161Z,24.10
2019-02-05T08:14:15.059Z,23.70
2019-02-05T08:15:14.948Z,25.60
2019-02-05T08:16:14.861Z,24.30
2019-02-05T08:17:14.737Z,23.30
2019-02-05T08:18:14.632Z,25.50
2019-02-05T08:19:14.529Z,23.50
2019-02-05T08:20:14.420Z,22.00
2019-02-05T08:21:14.320Z,23.20
2019-02-05T08:22:14.228Z,20.90
2019-02-05T08:23:14.107Z,20.90
2019-02-05T08:24:14.008Z,22.20
2019-02-05T08:25:13.899Z,21.30
2019-02-05T08:26:13.795Z,22.10
2019-02-05T08:27:13.706Z,20.50
2019-02-05T08:28:13.579Z,20.90
2019-02-05T08:29:21.410Z,19.90
2019-02-05T08:30:13.373Z,20.60
2019-02-05T08:31:13.272Z,21.60
2019-02-05T08:32:13.180Z,20.00
2019-02-05T08:33:13.062Z,20.90
2019-02-05T08:34:12.957Z,22.10
2019-02-05T08:35:12.852Z,21.40
2019-02-05T08:36:12.750Z,22.00
2019-02-05T08:37:12.662Z,23.60
2019-02-05T08:38:12.542Z,22.80
2019-02-05T08:39:12.440Z,23.40
2019-02-05T08:40:12.334Z,22.00
2019-02-05T08:41:12.235Z,24.30
2019-02-05T08:42:12.147Z,23.50
2019-02-05T08:43:12.028Z,23.00
2019-02-05T08:44:11.924Z,25.30
2019-02-05T08:45:14.254Z,25.60
2019-02-05T08:46:11.720Z,24.60
2019-02-05T08:47:11.706Z,27.00
2019-02-05T08:48:11.513Z,25.10
2019-02-05T08:49:11.412Z,24.80
2019-02-05T08:50:11.311Z,24.00
2019-02-05T08:51:11.207Z,25.50
2019-02-05T08:52:11.119Z,27.10
2019-02-05T08:53:11.002Z,28.20
2019-02-05T08:54:10.902Z,28.20
2019-02-05T08:55:10.798Z,27.60
2019-02-05T08:56:10.700Z,25.60
2019-02-05T08:57:10.613Z,26.10
2019-02-05T08:58:10.492Z,25.50
2019-02-05T08:59:10.436Z,26.90
2019-02-05T09:00:10.286Z,25.40
2019-02-05T09:01:10.184Z,26.60
2019-02-05T09:02:10.097Z,26.20
2019-02-05T09:03:09.980Z,24.70
2019-02-05T09:04:09.880Z,25.20
2019-02-05T09:05:09.777Z,24.50
2019-02-05T09:06:09.676Z,24.50
2019-02-05T09:07:09.592Z,24.20
2019-02-05T09:08:09.472Z,23.40
2019-02-05T09:09:09.368Z,24.20
2019-02-05T09:10:09.275Z,21.60
2019-02-05T09:11:09.167Z,22.80
2019-02-05T09:12:09.082Z,23.70
2019-02-05T09:13:08.969Z,23.50
2019-02-05T09:14:11.589Z,22.20
2019-02-05T09:15:08.766Z,20.90
2019-02-05T09:16:08.666Z,18.80
2019-02-05T09:17:08.583Z,20.30
2019-02-05T09:18:08.472Z,18.40
2019-02-05T09:19:08.370Z,18.60
2019-02-05T09:20:08.271Z,21.10
2019-02-05T09:21:08.174Z,18.90
2019-02-05T09:22:08.092Z,18.60
2019-02-05T09:23:07.977Z,19.90
2019-02-05T09:24:07.877Z,21.10
2019-02-05T09:25:07.781Z,19.70
2019-02-05T09:26:07.697Z,19.80
2019-02-05T09:27:07.603Z,20.80
2019-02-05T09:28:07.485Z,19.70
2019-02-05T09:29:07.389Z,19.20
2019-02-05T09:30:07.289Z,19.50
2019-02-05T09:31:07.190Z,20.90
2019-02-05T09:32:07.105Z,22.00
2019-02-05T09:33:06.992Z,23.60
2019-02-05T09:34:06.890Z,24.40
2019-02-05T09:35:06.793Z,24.10
2019-02-05T09:36:06.692Z,24.70
2019-02-05T09:37:06.611Z,24.30
2019-02-05T09:38:06.605Z,24.20
2019-02-05T09:39:06.393Z,23.60
2019-02-05T09:40:06.293Z,25.00
2019-02-05T09:41:06.190Z,24.20
2019-02-05T09:42:06.108Z,24.80
2019-02-05T09:43:05.993Z,23.00
2019-02-05T09:44:05.892Z,25.00
2019-02-05T09:45:05.914Z,25.90
2019-02-05T09:46:05.692Z,25.40
2019-02-05T09:47:05.601Z,24.90
2019-02-05T09:48:05.489Z,24.50
2019-02-05T09:49:05.386Z,24.80
2019-02-05T09:50:05.289Z,24.50
2019-02-05T09:51:05.185Z,25.40
2019-02-05T09:52:05.200Z,24.40
2019-02-05T09:53:04.979Z,25.00
2019-02-05T09:54:04.879Z,24.70
2019-02-05T09:55:04.781Z,25.80
2019-02-05T09:56:04.674Z,25.70
2019-02-05T09:57:04.590Z,25.50
2019-02-05T09:58:04.477Z,25.90
2019-02-05T09:59:04.474Z,27.00
2019-02-05T10:00:04.266Z,26.30
2019-02-05T10:01:04.165Z,25.40
2019-02-05T10:02:04.081Z,27.40
2019-02-05T10:03:03.972Z,28.20
2019-02-05T10:04:03.861Z,29.30
2019-02-05T10:05:03.758Z,29.20
2019-02-05T10:06:03.761Z,28.70
2019-02-05T10:07:03.558Z,30.00
2019-02-05T10:08:03.465Z,26.10
2019-02-05T10:09:03.347Z,28.70
2019-02-05T10:10:03.245Z,29.90
2019-02-05T10:11:03.142Z,31.20
2019-02-05T10:12:03.039Z,33.00
2019-02-05T10:13:03.050Z,31.70
2019-02-05T10:14:02.834Z,31.40
2019-02-05T10:15:02.732Z,30.80
2019-02-05T10:16:02.630Z,31.00
2019-02-05T10:17:02.529Z,33.00
2019-02-05T10:18:02.440Z,32.70
2019-02-05T10:19:02.325Z,33.00
2019-02-05T10:20:02.325Z,35.00
2019-02-05T10:21:02.120Z,33.90
2019-02-05T10:22:02.018Z,33.40
2019-02-05T10:23:01.929Z,32.90
2019-02-05T10:24:01.812Z,32.80
2019-02-05T10:25:01.710Z,33.60
2019-02-05T10:26:01.605Z,34.40
2019-02-05T10:27:01.612Z,35.30
2019-02-05T10:28:01.422Z,33.90
2019-02-05T10:29:01.299Z,35.80
2019-02-05T10:30:01.202Z,33.20
2019-02-05T10:31:01.097Z,32.90
2019-02-05T10:32:00.997Z,33.20
2019-02-05T10:33:00.908Z,32.00
2019-02-05T10:34:00.895Z,33.60
2019-02-05T10:35:00.687Z,29.90
2019-02-05T10:36:01.463Z,31.70
2019-02-05T10:37:00.486Z,30.20
2019-02-05T10:38:00.402Z,27.70
2019-02-05T10:39:00.281Z,29.70
2019-02-05T10:40:00.376Z,29.90
2019-02-05T10:41:00.197Z,30.10
2019-02-05T10:41:59.977Z,29.80
2019-02-05T10:42:59.890Z,30.80
2019-02-05T10:43:59.770Z,29.10
2019-02-05T10:44:59.669Z,31.30
2019-02-05T10:45:59.570Z,28.80
2019-02-05T10:46:59.468Z,28.70
2019-02-05T10:47:59.485Z,29.30
2019-02-05T10:48:59.260Z,31.10
2019-02-05T10:49:59.154Z,28.90
2019-02-05T10:50:59.053Z,29.50
2019-02-05T10:51:58.950Z,27.60
2019-02-05T10:52:58.863Z,27.40
2019-02-05T10:53:58.745Z,29.10
2019-02-05T10:54:58.749Z,29.50
2019-02-05T10:55:58.541Z,28.40
2019-02-05T10:56:58.437Z,25.50
2019-02-05T10:57:58.352Z,29.00
2019-02-05T10:58:58.233Z,28.80
2019-02-05T11:00:08.405Z,31.30
2019-02-05T11:00:58.153Z,32.00
2019-02-05T11:01:57.923Z,28.50
2019-02-05T11:02:57.839Z,26.10
2019-02-05T11:03:57.716Z,30.20
2019-02-05T11:04:57.612Z,29.90
2019-02-05T11:05:57.511Z,30.50
2019-02-05T11:06:57.409Z,31.40
2019-02-05T11:07:57.326Z,30.70
2019-02-05T11:08:57.202Z,30.50
2019-02-05T11:09:57.100Z,32.20
2019-02-05T11:10:56.996Z,30.40
2019-02-05T11:11:56.898Z,31.80
2019-02-05T11:12:56.806Z,30.70
2019-02-05T11:13:56.690Z,30.40
2019-02-05T11:14:56.585Z,30.90
2019-02-05T11:15:56.485Z,31.20
2019-02-05T11:16:56.381Z,30.10
2019-02-05T11:17:56.296Z,30.80
2019-02-05T11:18:56.175Z,32.30
2019-02-05T11:19:56.069Z,30.50
2019-02-05T11:20:55.969Z,29.90
2019-02-05T11:21:55.868Z,30.40
2019-02-05T11:22:55.783Z,30.20
2019-02-05T11:23:55.663Z,30.30
2019-02-05T11:24:55.562Z,30.50
2019-02-05T11:25:55.460Z,29.30
2019-02-05T11:26:55.356Z,30.50
2019-02-05T11:27:55.270Z,29.10
2019-02-05T11:28:55.152Z,28.10
2019-02-05T11:29:55.056Z,29.20
2019-02-05T11:30:54.949Z,28.40
2019-02-05T11:31:54.846Z,29.70
2019-02-05T11:32:54.761Z,28.90
2019-02-05T11:33:54.644Z,28.80
2019-02-05T11:34:54.628Z,27.80
2019-02-05T11:35:54.442Z,28.10
2019-02-05T11:36:54.341Z,27.50
2019-02-05T11:37:54.253Z,27.10
2019-02-05T11:38:54.134Z,28.20
2019-02-05T11:39:54.031Z,28.00
2019-02-05T11:40:53.929Z,29.70
2019-02-05T11:41:53.829Z,27.60
2019-02-05T11:42:53.743Z,28.40
2019-02-05T11:43:53.625Z,28.10
2019-02-05T11:44:53.523Z,25.90
2019-02-05T11:45:53.438Z,27.00
2019-02-05T11:46:53.327Z,27.70
2019-02-05T11:47:53.235Z,30.00
2019-02-05T11:48:53.121Z,27.90
2019-02-05T11:49:53.019Z,28.30
2019-02-05T11:50:53.215Z,29.10
2019-02-05T11:51:52.815Z,28.50
2019-02-05T11:52:52.718Z,28.00
2019-02-05T11:53:52.632Z,27.70
2019-02-05T11:54:52.514Z,27.90
2019-02-05T11:55:52.408Z,28.50
2019-02-05T11:56:52.306Z,28.70
2019-02-05T11:57:52.212Z,27.70
2019-02-05T11:58:52.126Z,28.40
2019-02-05T11:59:52.004Z,28.50
2019-02-05T12:00:51.903Z,27.50
2019-02-05T12:01:51.801Z,29.50
2019-02-05T12:02:51.709Z,27.00
2019-02-05T12:03:51.616Z,28.00
2019-02-05T12:04:51.498Z,29.90
2019-02-05T12:05:51.398Z,30.10
2019-02-05T12:06:51.295Z,32.30
2019-02-05T12:07:51.198Z,31.50
2019-02-05T12:08:51.111Z,31.00
2019-02-05T12:09:50.994Z,31.40
2019-02-05T12:10:50.890Z,31.10
2019-02-05T12:11:50.788Z,33.00
2019-02-05T12:12:50.686Z,30.90
2019-02-05T12:13:50.601Z,32.80
2019-02-05T12:14:50.604Z,31.90
2019-02-05T12:15:50.384Z,30.50
2019-02-05T12:16:50.284Z,30.60
2019-02-05T12:17:50.181Z,30.40
2019-02-05T12:18:50.098Z,32.30
2019-02-05T12:19:50.083Z,32.30
2019-02-05T12:20:49.879Z,31.10
2019-02-05T12:21:49.780Z,30.90
2019-02-05T12:22:49.677Z,32.40
2019-02-05T12:23:49.599Z,32.40
2019-02-05T12:24:49.478Z,31.80
2019-02-05T12:25:49.373Z,31.80
2019-02-05T12:26:49.275Z,32.60
2019-02-05T12:27:49.175Z,33.10
2019-02-05T12:28:49.088Z,33.80
2019-02-05T12:29:48.970Z,34.20
2019-02-05T12:30:48.872Z,34.40
2019-02-05T12:31:48.771Z,33.70
2019-02-05T12:32:48.667Z,35.50
2019-02-05T12:33:48.587Z,35.10
2019-02-05T12:34:48.468Z,34.60
2019-02-05T12:35:48.365Z,34.00
2019-02-05T12:36:48.268Z,35.30
2019-02-05T12:37:48.165Z,35.60
2019-02-05T12:38:48.082Z,35.10
2019-02-05T12:39:48.151Z,35.10
2019-02-05T12:40:47.860Z,36.90
2019-02-05T12:41:47.758Z,35.60
2019-02-05T12:42:47.736Z,35.80
2019-02-05T12:43:47.573Z,35.00
2019-02-05T12:44:47.454Z,35.30
2019-02-05T12:45:47.356Z,35.30
2019-02-05T12:46:47.355Z,35.70
2019-02-05T12:47:47.150Z,34.90
2019-02-05T12:48:47.070Z,34.00
2019-02-05T12:49:46.950Z,34.10
2019-02-05T12:50:46.847Z,33.70